Time,TemperatureF,DewpointF,PressureIn,WindDirection,WindDirectionDegrees,WindSpeedMPH,WindSpeedGustMPH,Humidity,HourlyPrecipIn,Conditions,Clouds,dailyrainin,SolarRadiationWatts/m^2,SoftwareType,DateUTC
2013-07-24 00:24:00,60.0,41.0,-100.00,North,2,1.0,11.0,50,0.00,,,0.00,0.000000,,2013-07-24 06:24:00,
2013-07-24 00:34:00,60.0,41.0,-100.00,North,2,1.0,11.0,50,0.00,,,0.00,0.000000,,2013-07-24 06:34:00,
2013-07-24 00:43:00,60.0,41.0,-100.00,North,2,1.0,11.0,50,0.00,,,0.00,0.000000,,2013-07-24 06:43:00,
2013-07-24 00:53:00,60.0,41.0,-100.00,North,2,1.0,11.0,50,0.00,,,0.00,0.000000,,2013-07-24 06:53:00,
2013-07-24 01:22:00,59.0,41.0,-100.00,NW,320,3.0,4.0,51,0.00,,,0.00,0.000000,,2013-07-24 07:22:00,
2013-07-24 01:32:00,59.0,41.0,-100.00,NW,320,3.0,4.0,51,0.00,,,0.00,0.000000,,2013-07-24 07:32:00,
2013-07-24 01:43:00,59.0,41.0,-100.00,NW,320,3.0,4.0,51,0.00,,,0.00,0.000000,,2013-07-24 07:43:00,
2013-07-24 01:52:00,59.0,41.0,-100.00,NW,320,3.0,4.0,51,0.00,,,0.00,0.000000,,2013-07-24 07:52:00,
2013-07-24 02:22:00,57.0,40.0,-100.00,NNW,333,2.0,9.0,53,0.00,,,0.00,0.000000,,2013-07-24 08:22:00,
2013-07-24 02:32:00,57.0,40.0,-100.00,NNW,333,2.0,9.0,53,0.00,,,0.00,0.000000,,2013-07-24 08:32:00,
2013-07-24 02:42:00,57.0,40.0,-100.00,NNW,333,2.0,9.0,53,0.00,,,0.00,0.000000,,2013-07-24 08:42:00,
2013-07-24 02:52:00,57.0,40.0,-100.00,NNW,333,2.0,9.0,53,0.00,,,0.00,0.000000,,2013-07-24 08:52:00,
2013-07-24 03:22:00,56.0,41.0,-100.00,SW,236,3.0,6.0,58,0.00,,,0.00,0.000000,,2013-07-24 09:22:00,
2013-07-24 03:32:00,56.0,41.0,-100.00,SW,236,3.0,6.0,58,0.00,,,0.00,0.000000,,2013-07-24 09:32:00,
2013-07-24 03:43:00,56.0,41.0,-100.00,SW,236,3.0,6.0,58,0.00,,,0.00,0.000000,,2013-07-24 09:43:00,
2013-07-24 03:53:00,56.0,41.0,-100.00,SW,236,3.0,6.0,58,0.00,,,0.00,0.000000,,2013-07-24 09:53:00,
2013-07-24 04:22:00,55.0,41.0,-100.00,NW,318,1.0,8.0,60,0.00,,,0.00,0.000000,,2013-07-24 10:22:00,
2013-07-24 04:33:00,55.0,41.0,-100.00,NW,318,1.0,8.0,60,0.00,,,0.00,0.000000,,2013-07-24 10:33:00,
2013-07-24 04:43:00,55.0,41.0,-100.00,NW,318,1.0,8.0,60,0.00,,,0.00,0.000000,,2013-07-24 10:43:00,
2013-07-24 04:53:00,55.0,41.0,-100.00,NW,318,1.0,8.0,60,0.00,,,0.00,0.000000,,2013-07-24 10:53:00,
2013-07-24 05:22:00,54.0,41.0,-100.00,NW,316,3.0,5.0,61,0.00,,,0.00,0.000000,,2013-07-24 11:22:00,
2013-07-24 05:32:00,54.0,41.0,-100.00,NW,316,3.0,5.0,61,0.00,,,0.00,0.000000,,2013-07-24 11:32:00,
2013-07-24 05:43:00,54.0,41.0,-100.00,NW,316,3.0,5.0,61,0.00,,,0.00,0.000000,,2013-07-24 11:43:00,
2013-07-24 05:52:00,54.0,41.0,-100.00,NW,316,3.0,5.0,61,0.00,,,0.00,0.000000,,2013-07-24 11:52:00,
2013-07-24 06:22:00,54.0,41.0,-100.00,NNW,339,4.0,6.0,62,0.00,,,-99.99,1.000000,,2013-07-24 12:22:00,
2013-07-24 06:32:00,54.0,41.0,-100.00,NNW,339,4.0,6.0,62,0.00,,,-99.99,1.000000,,2013-07-24 12:32:00,
2013-07-24 06:42:00,54.0,41.0,-100.00,NNW,339,4.0,6.0,62,0.00,,,-99.99,1.000000,,2013-07-24 12:42:00,
2013-07-24 06:52:00,54.0,41.0,-100.00,NNW,339,4.0,6.0,62,0.00,,,-99.99,1.000000,,2013-07-24 12:52:00,
2013-07-24 07:32:00,54.0,43.0,-100.00,NE,49,1.0,4.0,65,0.00,,,0.00,46.000000,,2013-07-24 13:32:00,
2013-07-24 07:43:00,54.0,43.0,-100.00,NE,49,1.0,4.0,65,0.00,,,0.00,46.000000,,2013-07-24 13:43:00,
2013-07-24 07:53:00,54.0,43.0,-100.00,NE,49,1.0,4.0,65,0.00,,,0.00,46.000000,,2013-07-24 13:53:00,
2013-07-24 08:32:00,61.0,45.0,-100.00,North,10,3.0,6.0,56,0.00,,,0.00,221.000000,,2013-07-24 14:32:00,
2013-07-24 08:43:00,61.0,45.0,-100.00,North,10,3.0,6.0,56,0.00,,,0.00,221.000000,,2013-07-24 14:43:00,
2013-07-24 08:55:00,61.0,45.0,-100.00,North,10,3.0,6.0,56,0.00,,,0.00,221.000000,,2013-07-24 14:55:00,
2013-07-24 09:32:00,66.0,45.0,-100.00,NNE,16,4.0,8.0,47,0.00,,,0.00,386.000000,,2013-07-24 15:32:00,
2013-07-24 09:43:00,66.0,45.0,-100.00,NNE,16,4.0,8.0,47,0.00,,,0.00,386.000000,,2013-07-24 15:43:00,
2013-07-24 09:52:00,66.0,45.0,-100.00,NNE,16,4.0,8.0,47,0.00,,,0.00,386.000000,,2013-07-24 15:52:00,
2013-07-24 10:22:00,69.0,46.0,-100.00,ESE,107,5.0,9.0,43,0.00,,,0.00,591.000000,,2013-07-24 16:22:00,
2013-07-24 10:32:00,69.0,46.0,-100.00,ESE,107,5.0,9.0,43,0.00,,,0.00,591.000000,,2013-07-24 16:32:00,
2013-07-24 10:43:00,69.0,46.0,-100.00,ESE,107,5.0,9.0,43,0.00,,,0.00,591.000000,,2013-07-24 16:43:00,
2013-07-24 10:53:00,69.0,46.0,-100.00,ESE,107,5.0,9.0,43,0.00,,,0.00,591.000000,,2013-07-24 16:53:00,
2013-07-24 11:22:00,69.0,44.0,-100.00,South,171,10.0,15.0,41,0.00,,,0.00,603.000000,,2013-07-24 17:22:00,
2013-07-24 11:33:00,69.0,44.0,-100.00,South,171,10.0,15.0,41,0.00,,,0.00,603.000000,,2013-07-24 17:33:00,
2013-07-24 11:43:00,69.0,44.0,-100.00,South,171,10.0,15.0,41,0.00,,,0.00,603.000000,,2013-07-24 17:43:00,
2013-07-24 11:53:00,69.0,44.0,-100.00,South,171,10.0,15.0,41,0.00,,,0.00,603.000000,,2013-07-24 17:53:00,
2013-07-24 12:22:00,66.0,45.0,-100.00,SSE,164,6.0,13.0,46,0.00,,,0.00,278.000000,,2013-07-24 18:22:00,
2013-07-24 12:33:00,66.0,45.0,-100.00,SSE,164,6.0,13.0,46,0.00,,,0.00,278.000000,,2013-07-24 18:33:00,
2013-07-24 12:43:00,66.0,45.0,-100.00,SSE,164,6.0,13.0,46,0.00,,,0.00,278.000000,,2013-07-24 18:43:00,
2013-07-24 12:52:00,66.0,45.0,-100.00,SSE,164,6.0,13.0,46,0.00,,,0.00,278.000000,,2013-07-24 18:52:00,
2013-07-24 13:53:00,72.0,41.0,-100.00,SW,215,9.0,18.0,32,0.00,,,0.00,612.000000,,2013-07-24 19:53:00,
2013-07-24 14:23:00,64.0,40.0,-100.00,NNE,21,5.0,26.0,41,0.00,,,0.00,257.000000,,2013-07-24 20:23:00,
2013-07-24 14:32:00,64.0,40.0,-100.00,NNE,21,5.0,26.0,41,0.00,,,0.00,257.000000,,2013-07-24 20:32:00,
2013-07-24 14:43:00,64.0,40.0,-100.00,NNE,21,5.0,26.0,41,0.00,,,0.00,257.000000,,2013-07-24 20:43:00,
2013-07-24 14:52:00,64.0,40.0,-100.00,NNE,21,5.0,26.0,41,0.00,,,0.00,257.000000,,2013-07-24 20:52:00,
2013-07-24 15:22:00,59.0,43.0,-100.00,South,180,5.0,24.0,55,0.00,,,0.00,180.000000,,2013-07-24 21:22:00,
2013-07-24 15:32:00,59.0,43.0,-100.00,South,180,5.0,24.0,55,0.00,,,0.00,180.000000,,2013-07-24 21:32:00,
2013-07-24 15:43:00,59.0,43.0,-100.00,South,180,5.0,24.0,55,0.00,,,0.00,180.000000,,2013-07-24 21:43:00,
2013-07-24 15:52:00,59.0,43.0,-100.00,South,180,5.0,24.0,55,0.00,,,0.00,180.000000,,2013-07-24 21:52:00,
2013-07-24 16:53:00,66.0,38.0,-100.00,NE,48,3.0,10.0,36,0.00,,,0.00,330.000000,,2013-07-24 22:53:00,
2013-07-24 17:22:00,57.0,47.0,-100.00,ESE,109,6.0,15.0,69,-99.99,,,0.00,135.000000,,2013-07-24 23:22:00,
2013-07-24 17:32:00,57.0,47.0,-100.00,ESE,109,6.0,15.0,69,-99.99,,,0.00,135.000000,,2013-07-24 23:32:00,
2013-07-24 17:43:00,57.0,47.0,-100.00,ESE,109,6.0,15.0,69,-99.99,,,0.00,135.000000,,2013-07-24 23:43:00,
2013-07-24 17:52:00,57.0,47.0,-100.00,ESE,109,6.0,15.0,69,-99.99,,,0.00,135.000000,,2013-07-24 23:52:00,
2013-07-24 18:22:00,58.0,48.0,-100.00,North,1,2.0,8.0,70,0.01,,,0.01,208.000000,,2013-07-25 00:22:00,
2013-07-24 18:33:00,58.0,48.0,-100.00,North,1,2.0,8.0,70,0.01,,,0.01,208.000000,,2013-07-25 00:33:00,
2013-07-24 18:43:00,58.0,48.0,-100.00,North,1,2.0,8.0,70,0.01,,,0.01,208.000000,,2013-07-25 00:43:00,
2013-07-24 18:52:00,58.0,48.0,-100.00,North,1,2.0,8.0,70,0.01,,,0.01,208.000000,,2013-07-25 00:52:00,
2013-07-24 19:22:00,60.0,46.0,-100.00,SSW,194,7.0,10.0,59,0.00,,,0.01,314.000000,,2013-07-25 01:22:00,
2013-07-24 19:32:00,60.0,46.0,-100.00,SSW,194,7.0,10.0,59,0.00,,,0.01,314.000000,,2013-07-25 01:32:00,
2013-07-24 19:43:00,60.0,46.0,-100.00,SSW,194,7.0,10.0,59,0.00,,,0.01,314.000000,,2013-07-25 01:43:00,
2013-07-24 19:53:00,60.0,46.0,-100.00,SSW,194,7.0,10.0,59,0.00,,,0.01,314.000000,,2013-07-25 01:53:00,
2013-07-24 20:22:00,56.0,45.0,-100.00,SSE,150,3.0,11.0,66,0.00,,,0.01,126.000000,,2013-07-25 02:22:00,
2013-07-24 20:33:00,56.0,45.0,-100.00,SSE,150,3.0,11.0,66,0.00,,,0.01,126.000000,,2013-07-25 02:33:00,
2013-07-24 20:43:00,56.0,45.0,-100.00,SSE,150,3.0,11.0,66,0.00,,,0.01,126.000000,,2013-07-25 02:43:00,
2013-07-24 20:52:00,56.0,45.0,-100.00,SSE,150,3.0,11.0,66,0.00,,,0.01,126.000000,,2013-07-25 02:52:00,
2013-07-24 21:24:00,53.0,45.0,-100.00,West,266,5.0,6.0,74,0.00,,,0.01,5.000000,,2013-07-25 03:24:00,
2013-07-24 21:36:00,53.0,45.0,-100.00,West,266,5.0,6.0,74,0.00,,,0.01,5.000000,,2013-07-25 03:36:00,
2013-07-24 21:44:00,53.0,45.0,-100.00,West,266,5.0,6.0,74,0.00,,,0.01,5.000000,,2013-07-25 03:44:00,
2013-07-24 21:52:00,53.0,45.0,-100.00,West,266,5.0,6.0,74,0.00,,,0.01,5.000000,,2013-07-25 03:52:00,
2013-07-24 22:22:00,53.0,45.0,-100.00,WNW,284,8.0,12.0,74,0.00,,,0.01,0.000000,,2013-07-25 04:22:00,
2013-07-24 22:32:00,53.0,45.0,-100.00,WNW,284,8.0,12.0,74,0.00,,,0.01,0.000000,,2013-07-25 04:32:00,
2013-07-24 22:43:00,53.0,45.0,-100.00,WNW,284,8.0,12.0,74,0.00,,,0.01,0.000000,,2013-07-25 04:43:00,
2013-07-24 22:53:00,53.0,45.0,-100.00,WNW,284,8.0,12.0,74,0.00,,,0.01,0.000000,,2013-07-25 04:53:00,
2013-07-24 23:22:00,52.0,45.0,-100.00,WSW,244,4.0,10.0,77,0.00,,,0.01,0.000000,,2013-07-25 05:22:00,
2013-07-24 23:32:00,52.0,45.0,-100.00,WSW,244,4.0,10.0,77,0.00,,,0.01,0.000000,,2013-07-25 05:32:00,
2013-07-24 23:43:00,52.0,45.0,-100.00,WSW,244,4.0,10.0,77,0.00,,,0.01,0.000000,,2013-07-25 05:43:00,
2013-07-24 23:52:00,52.0,45.0,-100.00,WSW,244,4.0,10.0,77,0.00,,,0.01,0.000000,,2013-07-25 05:52:00,